Time;durP1;ratioP1;P1;durP2;ratioP2;P2;SDS_P1;SDS_P2;PMS_P1;PMS_P2;Temp;Humidity;BMP_temperature;BMP_pressure;BME280_temperature;BME280_humidity;BME280_pressure;Samples;Min_cycle;Max_cycle;Signal;HPM_P1;HPM_P2
2022/02/28 00:01:23;;;;;;;7.38;4.07;;;-0.30;99.90;;;;;;6214170;23;20055;-79
2022/02/28 00:03:51;;;;;;;10.25;5.00;;;-0.30;99.90;;;;;;6213233;23;20028;-78
2022/02/28 00:06:16;;;;;;;9.48;4.03;;;-0.30;99.90;;;;;;6213832;23;20027;-77
2022/02/28 00:08:42;;;;;;;5.07;3.50;;;-0.30;99.90;;;;;;6213220;23;20016;-76
2022/02/28 00:11:08;;;;;;;8.70;4.32;;;-0.30;99.90;;;;;;6188600;23;20078;-79
2022/02/28 00:13:33;;;;;;;10.05;5.18;;;-0.30;99.90;;;;;;6188294;23;20074;-78
2022/02/28 00:15:59;;;;;;;4.93;3.65;;;-0.30;99.90;;;;;;6213647;23;20756;-78
2022/02/28 00:18:25;;;;;;;5.53;4.30;;;-0.30;99.90;;;;;;6211771;23;20027;-77
2022/02/28 00:20:51;;;;;;;8.10;4.15;;;-0.30;99.90;;;;;;6213358;23;20420;-77
2022/02/28 00:23:17;;;;;;;11.43;5.45;;;-0.40;99.90;;;;;;6213220;23;20016;-78
2022/02/28 00:25:43;;;;;;;6.43;3.92;;;-0.50;99.90;;;;;;6215594;23;20018;-76
2022/02/28 00:28:09;;;;;;;7.07;4.10;;;-0.60;99.90;;;;;;6217431;23;20016;-77
2022/02/28 00:30:36;;;;;;;8.82;4.22;;;-0.60;99.90;;;;;;6217846;23;20348;-76
2022/02/28 00:33:03;;;;;;;8.60;4.05;;;-0.70;99.90;;;;;;6216222;23;20020;-77
2022/02/28 00:35:29;;;;;;;7.28;3.72;;;-0.70;99.90;;;;;;6218183;23;20071;-77
2022/02/28 00:37:55;;;;;;;7.75;4.60;;;-0.80;99.90;;;;;;6192344;23;20019;-77
2022/02/28 00:40:21;;;;;;;8.93;4.05;;;-0.80;99.90;;;;;;6218170;23;20020;-76
2022/02/28 00:42:47;;;;;;;10.70;3.88;;;-0.80;99.90;;;;;;6192613;23;20044;-75
2022/02/28 00:45:12;;;;;;;8.18;4.82;;;-0.80;99.90;;;;;;6167542;23;20027;-77
2022/02/28 00:47:39;;;;;;;4.43;3.72;;;-0.80;99.90;;;;;;6217608;23;20028;-77
2022/02/28 00:50:07;;;;;;;6.30;3.45;;;-0.80;99.90;;;;;;6190925;23;20024;-76
2022/02/28 00:52:33;;;;;;;5.03;3.58;;;-0.90;99.90;;;;;;6217457;23;20016;-77
2022/02/28 00:54:59;;;;;;;8.77;4.68;;;-0.80;99.90;;;;;;6167430;23;20012;-75
2022/02/28 00:57:24;;;;;;;10.88;5.25;;;-0.80;99.90;;;;;;6192704;23;20012;-76
2022/02/28 00:59:51;;;;;;;7.13;4.20;;;-0.80;99.90;;;;;;6216451;23;20016;-78
2022/02/28 01:02:17;;;;;;;8.40;4.47;;;-0.80;99.90;;;;;;6217790;23;20096;-76
2022/02/28 01:04:43;;;;;;;;;;;-0.80;99.90;;;;;;6217083;23;20020;-77
2022/02/28 01:07:09;;;;;;;9.27;4.18;;;-0.70;99.90;;;;;;6217352;23;19918;-76
2022/02/28 01:09:35;;;;;;;12.27;4.97;;;-0.70;99.90;;;;;;6216940;23;20020;-78
2022/02/28 01:12:02;;;;;;;9.57;4.80;;;-0.70;99.90;;;;;;6217322;23;20448;-78
2022/02/28 01:14:28;;;;;;;10.52;5.40;;;-0.70;99.90;;;;;;6217049;23;20016;-78
2022/02/28 01:16:54;;;;;;;9.02;5.10;;;-0.60;99.90;;;;;;6217362;23;20479;-77
2022/02/28 01:19:20;;;;;;;5.97;3.88;;;-0.50;99.90;;;;;;6191454;23;20023;-76
2022/02/28 01:21:45;;;;;;;7.22;4.25;;;-0.50;99.90;;;;;;6192387;23;20348;-76
2022/02/28 01:24:11;;;;;;;;;;;-1.30;99.90;;;;;;6218158;23;20027;-78
2022/02/28 01:26:37;;;;;;;9.15;5.10;;;-0.70;99.90;;;;;;6217631;23;19925;-77
2022/02/28 01:29:03;;;;;;;9.23;4.88;;;-0.70;99.90;;;;;;6216318;23;20444;-77
2022/02/28 01:31:28;;;;;;;;;;;-0.70;99.90;;;;;;6192341;23;20127;-76
2022/02/28 01:33:54;;;;;;;7.75;4.90;;;-0.80;99.90;;;;;;6215832;23;19973;-76
2022/02/28 01:36:20;;;;;;;6.57;4.10;;;-0.80;99.90;;;;;;6217806;23;20019;-78
2022/02/28 01:38:46;;;;;;;12.40;4.82;;;-0.80;99.90;;;;;;6192233;23;20020;-76
2022/02/28 01:41:11;;;;;;;;;;;0.10;99.90;;;;;;6167223;23;20420;-76
2022/02/28 01:43:37;;;;;;;13.07;5.13;;;-0.80;99.90;;;;;;6217036;23;20030;-77
2022/02/28 01:46:03;;;;;;;7.05;4.28;;;-0.80;99.90;;;;;;6216858;23;20024;-77
2022/02/28 01:48:29;;;;;;;11.82;4.88;;;-0.80;99.90;;;;;;6190840;23;20558;-78
2022/02/28 01:50:54;;;;;;;8.95;4.38;;;-0.90;99.90;;;;;;6191425;23;20031;-78
2022/02/28 01:53:21;;;;;;;;;;;-0.90;99.90;;;;;;6192917;23;20012;-76
2022/02/28 01:55:46;;;;;;;4.88;4.22;;;-0.90;99.90;;;;;;6192321;23;20183;-77
2022/02/28 01:58:12;;;;;;;9.00;4.57;;;-0.90;99.90;;;;;;6191735;23;20047;-78
2022/02/28 02:00:38;;;;;;;12.90;5.88;;;-0.90;99.90;;;;;;6191851;23;20039;-76
2022/02/28 02:03:04;;;;;;;;;;;-0.90;99.90;;;;;;6217170;23;20024;-76
2022/02/28 02:05:30;;;;;;;4.82;3.63;;;-0.90;99.90;;;;;;6217264;23;20243;-76
2022/02/28 02:07:56;;;;;;;9.02;5.00;;;-0.90;99.90;;;;;;6216951;23;20020;-78
2022/02/28 02:10:21;;;;;;;6.80;4.50;;;-0.90;99.90;;;;;;6217304;23;20035;-77
2022/02/28 02:12:48;;;;;;;9.30;4.90;;;-0.90;99.90;;;;;;6216251;23;20024;-78
2022/02/28 02:15:15;;;;;;;11.27;5.25;;;-0.90;99.90;;;;;;6217108;23;20052;-76
2022/02/28 02:17:42;;;;;;;11.50;5.60;;;-0.90;99.90;;;;;;6217382;23;20070;-77
2022/02/28 02:20:10;;;;;;;13.27;5.32;;;-0.90;99.90;;;;;;6215814;23;20031;-76
2022/02/28 02:22:36;;;;;;;9.95;5.30;;;-0.90;99.90;;;;;;6216674;23;20074;-77
2022/02/28 02:25:02;;;;;;;14.50;6.10;;;-1.00;99.90;;;;;;6216529;23;20439;-76
2022/02/28 02:27:29;;;;;;;9.15;5.63;;;-1.00;99.90;;;;;;6193510;23;20107;-75
2022/02/28 02:29:54;;;;;;;7.70;5.20;;;-1.00;99.90;;;;;;6166268;23;20481;-75
2022/02/28 02:32:20;;;;;;;8.75;5.65;;;-1.10;99.90;;;;;;6167051;23;20016;-77
2022/02/28 02:34:46;;;;;;;;;;;-1.10;99.90;;;;;;6191591;23;20102;-78
2022/02/28 02:37:12;;;;;;;11.55;5.32;;;-1.10;99.90;;;;;;6215918;23;19990;-76
2022/02/28 02:39:42;;;;;;;12.35;5.85;;;-1.10;99.90;;;;;;6191775;23;20020;-76
2022/02/28 02:42:08;;;;;;;9.98;5.28;;;-1.10;99.90;;;;;;6216019;23;20399;-79
2022/02/28 02:44:35;;;;;;;8.68;6.03;;;-1.10;99.90;;;;;;6191538;23;20371;-78
2022/02/28 02:47:02;;;;;;;8.18;5.43;;;-1.10;99.90;;;;;;6191413;23;20028;-78
2022/02/28 02:49:30;;;;;;;16.92;6.35;;;-1.10;99.90;;;;;;6190351;23;20059;-78
2022/02/28 02:51:56;;;;;;;8.50;5.50;;;-1.10;99.90;;;;;;6190950;23;20023;-79
2022/02/28 02:54:22;;;;;;;10.07;5.10;;;-1.10;99.90;;;;;;6191779;23;20055;-76
2022/02/28 02:56:48;;;;;;;;;;;-1.20;99.90;;;;;;6217007;23;20404;-76
2022/02/28 02:59:14;;;;;;;7.88;5.22;;;0.00;99.90;;;;;;6190869;23;19915;-79
2022/02/28 03:01:39;;;;;;;9.48;5.55;;;-1.20;99.90;;;;;;6216224;23;20081;-78
2022/02/28 03:04:05;;;;;;;;;;;-1.10;99.90;;;;;;6191260;23;20020;-76
2022/02/28 03:06:33;;;;;;;8.20;5.93;;;-1.10;99.90;;;;;;6191536;23;19945;-79
2022/02/28 03:08:59;;;;;;;8.07;5.07;;;-1.10;99.90;;;;;;6216225;23;20024;-77
2022/02/28 03:11:25;;;;;;;11.18;4.05;;;-1.10;99.90;;;;;;6191642;23;20095;-79
2022/02/28 03:13:51;;;;;;;8.43;5.68;;;-1.20;99.90;;;;;;6216757;23;20339;-79
2022/02/28 03:16:16;;;;;;;;;;;-1.20;99.90;;;;;;6191783;23;20052;-78
2022/02/28 03:18:42;;;;;;;16.10;5.95;;;-1.20;99.90;;;;;;6215486;23;20188;-78
2022/02/28 03:21:07;;;;;;;10.70;5.65;;;-1.20;99.90;;;;;;6191157;23;20051;-79
2022/02/28 03:23:33;;;;;;;8.20;5.60;;;-1.20;99.90;;;;;;6216671;23;20022;-76
2022/02/28 03:26:00;;;;;;;8.25;4.45;;;-1.30;99.90;;;;;;6216379;23;20070;-79
2022/02/28 03:28:26;;;;;;;11.00;5.40;;;-1.40;99.90;;;;;;6215831;23;20027;-79
2022/02/28 03:30:52;;;;;;;;;;;-1.40;99.90;;;;;;6191901;23;20023;-78
2022/02/28 03:33:18;;;;;;;5.60;4.47;;;-1.40;99.90;;;;;;6214900;23;20323;-78
2022/02/28 03:35:43;;;;;;;6.03;3.88;;;-1.50;99.90;;;;;;6191581;23;20420;-77
2022/02/28 03:38:09;;;;;;;8.23;4.63;;;-1.50;99.90;;;;;;6190676;23;20035;-78
2022/02/28 03:40:35;;;;;;;7.82;5.00;;;-1.60;99.90;;;;;;6191748;23;20370;-79
2022/02/28 03:43:05;;;;;;;8.90;4.80;;;-1.70;99.90;;;;;;6190327;23;20016;-76
2022/02/28 03:45:31;;;;;;;12.52;6.03;;;-1.50;99.90;;;;;;6216408;23;20012;-78
2022/02/28 03:47:57;;;;;;;7.82;5.63;;;-1.50;99.90;;;;;;6165107;23;20039;-75
2022/02/28 03:50:24;;;;;;;8.70;4.93;;;-1.50;99.90;;;;;;6216112;23;20016;-75
2022/02/28 03:52:53;;;;;;;10.85;5.30;;;-1.50;99.90;;;;;;6191127;23;20055;-77
2022/02/28 03:55:20;;;;;;;7.90;5.32;;;-1.50;99.90;;;;;;6216121;23;20082;-79
2022/02/28 03:57:45;;;;;;;;;;;-1.50;99.90;;;;;;6191590;23;20551;-78
2022/02/28 04:00:12;;;;;;;6.50;4.28;;;-1.50;99.90;;;;;;6191123;23;20296;-76
2022/02/28 04:02:38;;;;;;;6.95;4.70;;;-1.50;99.90;;;;;;6193302;23;20372;-78
2022/02/28 04:05:04;;;;;;;13.32;4.55;;;-1.50;99.90;;;;;;6192190;23;20020;-76
2022/02/28 04:07:30;;;;;;;;;;;-1.50;99.90;;;;;;6218794;23;20020;-79
2022/02/28 04:09:56;;;;;;;7.47;4.45;;;-1.50;99.90;;;;;;6218377;23;19912;-79
2022/02/28 04:12:22;;;;;;;5.72;4.65;;;-1.60;99.90;;;;;;6192540;23;20444;-78
2022/02/28 04:14:47;;;;;;;10.32;5.28;;;-1.60;99.90;;;;;;6168338;23;20020;-76
2022/02/28 04:17:14;;;;;;;12.30;4.88;;;-1.60;99.90;;;;;;6192926;23;20281;-78
2022/02/28 04:19:39;;;;;;;9.63;4.57;;;-1.70;99.90;;;;;;6217397;23;20016;-80
2022/02/28 04:22:05;;;;;;;6.70;4.70;;;-1.60;99.90;;;;;;6192769;23;20020;-79
2022/02/28 04:24:31;;;;;;;7.32;5.00;;;-1.40;99.90;;;;;;6193395;23;20016;-79
2022/02/28 04:26:57;;;;;;;7.55;4.32;;;-1.60;99.90;;;;;;6218445;23;20023;-78
2022/02/28 04:29:23;;;;;;;;;;;-1.60;99.90;;;;;;6192702;23;20024;-79
2022/02/28 04:31:49;;;;;;;6.97;4.43;;;-1.60;99.90;;;;;;6217823;23;19921;-78
2022/02/28 04:34:15;;;;;;;8.13;5.10;;;-1.70;99.90;;;;;;6166970;23;20095;-80
2022/02/28 04:36:41;;;;;;;12.02;4.70;;;-1.70;99.90;;;;;;6218359;23;20016;-79
2022/02/28 04:39:06;;;;;;;;;;;-1.70;99.90;;;;;;6217732;23;20012;-78
2022/02/28 04:41:32;;;;;;;6.65;5.00;;;-1.70;99.90;;;;;;6217775;23;20216;-78
2022/02/28 04:43:57;;;;;;;;;;;-1.70;99.90;;;;;;6192960;23;20024;-78
2022/02/28 04:46:25;;;;;;;8.70;4.50;;;-1.70;99.90;;;;;;6192731;23;20235;-78
2022/02/28 04:48:50;;;;;;;10.15;5.00;;;-1.70;99.90;;;;;;6216425;23;20034;-77
2022/02/28 04:51:16;;;;;;;11.57;4.97;;;-1.80;99.90;;;;;;6217340;23;20020;-78
2022/02/28 04:53:42;;;;;;;;;;;-1.80;99.90;;;;;;6193125;23;20050;-78
2022/02/28 04:56:08;;;;;;;9.43;4.40;;;-1.80;99.90;;;;;;6217616;23;19916;-77
2022/02/28 04:58:34;;;;;;;10.95;4.68;;;-1.80;99.90;;;;;;6217391;23;20048;-78
2022/02/28 05:00:59;;;;;;;6.20;4.45;;;-1.80;99.90;;;;;;6175333;23;20023;-76
2022/02/28 05:03:25;;;;;;;10.50;5.20;;;-1.80;99.90;;;;;;6211259;23;20020;-77
2022/02/28 05:05:50;;;;;;;;;;;-1.80;99.90;;;;;;6191204;23;20016;-78
2022/02/28 05:08:16;;;;;;;8.48;4.18;;;-1.80;99.90;;;;;;6217149;23;19912;-76
2022/02/28 05:10:42;;;;;;;;;;;-1.80;99.90;;;;;;6217598;23;20027;-76
2022/02/28 05:13:08;;;;;;;12.63;6.07;;;-1.80;99.90;;;;;;6216172;23;19994;-79
2022/02/28 05:15:33;;;;;;;;;;;-1.90;99.90;;;;;;6192935;23;20125;-77
2022/02/28 05:18:00;;;;;;;8.05;4.80;;;-1.80;99.90;;;;;;6216820;23;20299;-78
2022/02/28 05:20:25;;;;;;;;;;;-1.90;99.90;;;;;;6191616;23;20016;-78
2022/02/28 05:22:51;;;;;;;7.22;4.57;;;-1.80;99.90;;;;;;6216740;23;19934;-77
2022/02/28 05:25:17;;;;;;;12.10;5.35;;;-1.80;99.90;;;;;;6216236;23;20450;-77
2022/02/28 05:27:43;;;;;;;;;;;-1.90;99.90;;;;;;6217700;23;20023;-76
2022/02/28 05:30:10;;;;;;;7.38;4.43;;;-1.90;99.90;;;;;;6216391;23;19922;-78
2022/02/28 05:32:37;;;;;;;8.38;4.43;;;-2.00;99.90;;;;;;6192476;23;20020;-79
2022/02/28 05:35:05;;;;;;;9.75;4.95;;;-2.00;99.90;;;;;;6215503;23;20500;-77
2022/02/28 05:37:30;;;;;;;9.27;4.72;;;-2.00;99.90;;;;;;6217088;23;20139;-78
2022/02/28 05:39:56;;;;;;;12.13;5.07;;;-2.00;99.90;;;;;;6216305;23;20463;-77
2022/02/28 05:42:22;;;;;;;9.65;5.55;;;-2.10;99.90;;;;;;6191402;23;20102;-78
2022/02/28 05:44:49;;;;;;;7.93;4.13;;;-2.00;99.90;;;;;;6191352;23;20028;-77
2022/02/28 05:47:14;;;;;;;10.38;6.60;;;-2.00;99.90;;;;;;6216342;23;20024;-77
2022/02/28 05:49:40;;;;;;;8.75;5.95;;;-1.90;99.90;;;;;;6191196;23;20348;-78
2022/02/28 05:52:06;;;;;;;8.60;5.95;;;-2.00;99.90;;;;;;6216810;23;20016;-78
2022/02/28 05:54:32;;;;;;;;;;;-1.90;99.90;;;;;;6217704;23;20012;-76
2022/02/28 05:56:58;;;;;;;8.20;5.32;;;-1.90;99.90;;;;;;6217179;23;20011;-78
2022/02/28 05:59:23;;;;;;;;;;;-1.80;99.90;;;;;;6192005;23;20095;-77
2022/02/28 06:01:49;;;;;;;12.40;5.47;;;-1.80;99.90;;;;;;6192483;23;19958;-76
2022/02/28 06:04:15;;;;;;;;;;;-1.90;99.90;;;;;;6216987;23;20310;-77
2022/02/28 06:06:40;;;;;;;13.75;5.63;;;-1.80;99.90;;;;;;6192157;23;19911;-79
2022/02/28 06:09:06;;;;;;;;;;;-1.90;99.90;;;;;;6192018;23;20016;-77
2022/02/28 06:11:32;;;;;;;9.52;4.30;;;-1.90;99.90;;;;;;6216505;23;19923;-76
2022/02/28 06:13:58;;;;;;;;;;;-2.00;99.90;;;;;;6192391;23;20404;-77
2022/02/28 06:16:24;;;;;;;6.93;4.65;;;-2.00;99.90;;;;;;6217166;23;19985;-77
2022/02/28 06:18:49;;;;;;;;;;;-2.10;99.90;;;;;;6217436;23;20078;-76
2022/02/28 06:21:15;;;;;;;7.72;4.65;;;-2.10;99.90;;;;;;6216457;23;19911;-78
2022/02/28 06:23:42;;;;;;;9.52;5.22;;;-2.10;99.90;;;;;;6191195;23;20051;-76
2022/02/28 06:26:09;;;;;;;7.47;4.93;;;-2.10;99.90;;;;;;6216523;23;20020;-76
2022/02/28 06:28:35;;;;;;;8.27;5.65;;;-2.10;99.90;;;;;;6216968;23;20024;-77
2022/02/28 06:31:03;;;;;;;10.55;6.10;;;-2.10;99.90;;;;;;6216854;23;20027;-80
2022/02/28 06:33:29;;;;;;;8.80;5.70;;;-2.00;99.90;;;;;;6217294;23;20023;-79
2022/02/28 06:35:55;;;;;;;11.27;6.07;;;-2.00;99.90;;;;;;6219733;23;20026;-77
2022/02/28 06:38:21;;;;;;;8.75;6.38;;;-2.00;99.90;;;;;;6220882;23;20047;-79
2022/02/28 06:40:48;;;;;;;9.65;6.13;;;-2.00;99.90;;;;;;6191995;23;20009;-78
2022/02/28 06:43:20;;;;;;;12.18;6.85;;;-2.00;99.90;;;;;;6190907;23;20024;-79
2022/02/28 06:45:47;;;;;;;16.38;7.80;;;-2.00;99.90;;;;;;6217608;23;20099;-78
2022/02/28 06:48:13;;;;;;;17.42;7.43;;;-1.90;99.90;;;;;;6190887;23;20027;-76
2022/02/28 06:50:38;;;;;;;15.38;7.75;;;-1.80;99.90;;;;;;6217005;23;20108;-77
2022/02/28 06:53:04;;;;;;;19.60;7.18;;;-1.80;99.90;;;;;;6217901;23;20456;-77
2022/02/28 06:55:30;;;;;;;;;;;-1.80;99.90;;;;;;6192396;23;20012;-80
2022/02/28 06:57:55;;;;;;;20.33;8.13;;;-1.70;99.90;;;;;;6219146;23;19926;-79
2022/02/28 07:00:21;;;;;;;;;;;-1.70;99.90;;;;;;6195828;23;20023;-76
2022/02/28 07:02:47;;;;;;;11.25;6.68;;;-1.60;99.90;;;;;;6220530;23;20320;-77
2022/02/28 07:05:12;;;;;;;9.43;5.72;;;-1.60;99.90;;;;;;6221454;23;20027;-76
2022/02/28 07:07:39;;;;;;;14.52;7.45;;;-1.60;99.90;;;;;;6222918;23;20038;-77
2022/02/28 07:10:06;;;;;;;7.55;6.10;;;-1.50;99.90;;;;;;6197905;23;20027;-78
2022/02/28 07:12:32;;;;;;;12.00;5.82;;;-1.50;99.90;;;;;;6198459;23;20098;-76
2022/02/28 07:14:58;;;;;;;11.05;5.50;;;-1.40;99.90;;;;;;6220409;23;20017;-77
2022/02/28 07:17:26;;;;;;;10.80;6.47;;;-1.40;99.90;;;;;;6195389;23;20074;-78
2022/02/28 07:19:51;;;;;;;8.80;5.57;;;-1.30;99.90;;;;;;6194953;23;20013;-77
2022/02/28 07:22:17;;;;;;;12.63;7.07;;;-1.30;99.90;;;;;;6193799;23;20394;-79
2022/02/28 07:24:43;;;;;;;12.05;6.47;;;-1.10;99.90;;;;;;6216462;23;20095;-77
2022/02/28 07:27:11;;;;;;;13.80;7.57;;;-1.20;99.90;;;;;;6243198;23;20020;-77
2022/02/28 07:29:37;;;;;;;13.48;7.20;;;-1.30;99.90;;;;;;6190756;23;20035;-78
2022/02/28 07:32:03;;;;;;;;;;;-1.00;99.90;;;;;;6166414;23;20094;-78
2022/02/28 07:34:29;;;;;;;10.80;5.82;;;-0.90;99.90;;;;;;6184803;23;19935;-78
2022/02/28 07:36:56;;;;;;;11.00;6.80;;;0.00;99.90;;;;;;6215131;23;20016;-80
2022/02/28 07:39:22;;;;;;;7.65;5.93;;;-0.70;99.90;;;;;;6189751;23;20301;-83
2022/02/28 07:41:48;;;;;;;15.57;6.70;;;-0.60;99.90;;;;;;6190065;23;20063;-81
2022/02/28 07:44:14;;;;;;;10.60;6.47;;;1.00;99.90;;;;;;6159030;23;20024;-76
2022/02/28 07:46:41;;;;;;;13.10;7.57;;;-0.50;99.90;;;;;;6160519;23;20020;-77
2022/02/28 07:49:06;;;;;;;7.40;5.45;;;0.00;99.90;;;;;;6187869;23;20028;-75
2022/02/28 07:51:32;;;;;;;12.00;6.03;;;-0.20;99.90;;;;;;6212845;23;20027;-75
2022/02/28 07:53:58;;;;;;;9.95;6.72;;;-0.10;99.90;;;;;;6214607;23;20465;-77
2022/02/28 07:56:24;;;;;;;19.20;7.65;;;-0.10;99.90;;;;;;6213245;23;20023;-76
2022/02/28 07:58:50;;;;;;;9.10;6.07;;;0.00;99.90;;;;;;6188432;23;20444;-76
2022/02/28 08:01:16;;;;;;;10.43;6.25;;;0.20;99.90;;;;;;6187288;23;20016;-77
2022/02/28 08:03:42;;;;;;;10.25;6.35;;;1.00;99.90;;;;;;6201133;23;20074;-77
2022/02/28 08:06:07;;;;;;;9.65;6.43;;;0.30;99.90;;;;;;6173757;23;20030;-76
2022/02/28 08:08:33;;;;;;;10.95;5.25;;;0.40;99.90;;;;;;6178534;23;20024;-77
2022/02/28 08:10:59;;;;;;;8.43;5.93;;;0.50;99.90;;;;;;6189156;23;20016;-77
2022/02/28 08:13:25;;;;;;;6.95;5.28;;;0.70;99.90;;;;;;6187937;23;20100;-76
2022/02/28 08:15:50;;;;;;;11.85;6.28;;;0.80;99.90;;;;;;6189031;23;20017;-76
2022/02/28 08:18:16;;;;;;;9.57;5.40;;;0.90;99.90;;;;;;6212193;23;20050;-78
2022/02/28 08:20:42;;;;;;;11.32;6.30;;;2.10;99.90;;;;;;6163461;23;20395;-76
2022/02/28 08:23:08;;;;;;;11.75;6.65;;;1.10;99.90;;;;;;6188313;23;20024;-78
2022/02/28 08:25:34;;;;;;;12.57;6.05;;;1.30;99.90;;;;;;6186959;23;20024;-75
2022/02/28 08:28:00;;;;;;;10.45;5.95;;;1.40;99.90;;;;;;6187431;23;20016;-78
2022/02/28 08:30:25;;;;;;;10.02;6.28;;;1.50;99.90;;;;;;6213446;23;20035;-76
2022/02/28 08:32:53;;;;;;;12.13;6.93;;;1.80;99.90;;;;;;6213188;23;20023;-80
2022/02/28 08:35:20;;;;;;;10.77;6.88;;;1.80;99.90;;;;;;6187545;23;20027;-76
2022/02/28 08:37:46;;;;;;;;;;;1.90;99.90;;;;;;6188016;23;20023;-76
2022/02/28 08:40:12;;;;;;;12.73;6.15;;;2.00;99.90;;;;;;6211393;23;19994;-77
2022/02/28 08:42:38;;;;;;;10.23;6.07;;;2.20;99.90;;;;;;6212316;23;20028;-79
2022/02/28 08:45:05;;;;;;;8.65;5.18;;;2.30;99.90;;;;;;6187900;23;20320;-77
2022/02/28 08:47:32;;;;;;;9.45;5.22;;;2.50;99.90;;;;;;6212946;23;20086;-77
2022/02/28 08:50:00;;;;;;;7.25;4.88;;;2.60;99.90;;;;;;6213833;23;20031;-77
2022/02/28 08:52:26;;;;;;;8.25;4.60;;;2.80;99.90;;;;;;6213981;23;20102;-78
2022/02/28 08:54:52;;;;;;;10.05;5.90;;;2.90;99.90;;;;;;6190333;23;20058;-78
2022/02/28 08:57:20;;;;;;;9.77;5.78;;;3.00;99.90;;;;;;6189505;23;20475;-76
2022/02/28 08:59:46;;;;;;;11.77;5.07;;;3.10;99.90;;;;;;6188963;23;20016;-76
2022/02/28 09:02:12;;;;;;;11.32;5.75;;;3.20;99.90;;;;;;6213904;23;20027;-76
2022/02/28 09:04:38;;;;;;;8.95;5.25;;;3.30;99.90;;;;;;6212361;23;20039;-77
2022/02/28 09:07:04;;;;;;;9.70;5.72;;;3.90;99.90;;;;;;6215954;23;20034;-81
2022/02/28 09:09:30;;;;;;;7.43;5.18;;;2.70;99.90;;;;;;6190292;23;20012;-78
2022/02/28 09:11:56;;;;;;;8.95;5.22;;;3.60;99.90;;;;;;6190349;23;20043;-78
2022/02/28 09:14:22;;;;;;;7.68;4.72;;;3.70;99.90;;;;;;6190702;23;20024;-79
2022/02/28 09:16:47;;;;;;;;;;;3.80;99.90;;;;;;6193252;23;20332;-79
2022/02/28 09:19:13;;;;;;;10.63;5.85;;;3.80;99.90;;;;;;6187277;23;19915;-78
2022/02/28 09:21:39;;;;;;;8.57;4.78;;;3.80;99.90;;;;;;6215115;23;20020;-80
2022/02/28 09:24:06;;;;;;;8.27;5.80;;;3.90;99.90;;;;;;6190704;23;20165;-78
2022/02/28 09:26:36;;;;;;;6.43;4.40;;;4.20;99.90;;;;;;6215454;23;20121;-78
2022/02/28 09:29:03;;;;;;;9.18;5.43;;;4.20;99.90;;;;;;6214618;23;20440;-78
2022/02/28 09:31:29;;;;;;;10.52;5.80;;;4.10;99.90;;;;;;6188032;23;20020;-77
2022/02/28 09:33:54;;;;;;;9.07;5.20;;;4.20;99.90;;;;;;6212669;23;20120;-77
2022/02/28 09:36:20;;;;;;;8.77;5.50;;;4.30;99.90;;;;;;6164523;23;20020;-78
2022/02/28 09:38:46;;;;;;;9.30;4.20;;;5.00;99.90;;;;;;6165761;23;20020;-80
2022/02/28 09:41:16;;;;;;;6.20;4.47;;;4.40;99.90;;;;;;6190795;23;20417;-78
2022/02/28 09:43:43;;;;;;;9.75;4.65;;;4.60;99.90;;;;;;6220186;23;20196;-79
2022/02/28 09:46:10;;;;;;;10.93;6.40;;;4.70;99.90;;;;;;6191757;23;20451;-78
2022/02/28 09:48:37;;;;;;;8.30;5.40;;;4.70;99.90;;;;;;6189387;23;20024;-79
2022/02/28 09:51:03;;;;;;;9.95;5.63;;;4.80;99.90;;;;;;6163970;23;20012;-79
2022/02/28 09:53:29;;;;;;;9.00;5.07;;;4.90;99.90;;;;;;6189431;23;20099;-83
2022/02/28 09:55:55;;;;;;;7.18;5.00;;;5.30;99.90;;;;;;6191128;23;20035;-79
2022/02/28 09:58:29;;;;;;;;;;;5.10;99.90;;;;;;6191490;23;20020;-82
2022/02/28 10:00:56;;;;;;;12.35;5.72;;;5.10;99.90;;;;;;6222498;23;19915;-81
2022/02/28 10:03:27;;;;;;;9.57;5.50;;;5.20;99.90;;;;;;6190237;23;20099;-79
2022/02/28 10:06:01;;;;;;;8.13;4.70;;;5.20;99.90;;;;;;6192291;23;20070;-81
2022/02/28 10:08:50;;;;;;;8.18;4.75;;;5.30;99.90;;;;;;6189892;23;20058;-79
2022/02/28 10:11:29;;;;;;;6.78;4.68;;;5.30;99.90;;;;;;6167089;23;20061;-79
2022/02/28 10:14:00;;;;;;;8.95;5.20;;;5.40;99.90;;;;;;6192703;23;20031;-81
2022/02/28 10:16:31;;;;;;;8.43;5.50;;;5.40;99.90;;;;;;6206540;23;20059;-79
2022/02/28 10:18:57;;;;;;;8.00;5.22;;;5.50;99.90;;;;;;6227686;23;20031;-82
2022/02/28 10:21:45;;;;;;;8.50;4.57;;;5.60;99.90;;;;;;6190569;23;20095;-80
2022/02/28 10:24:33;;;;;;;7.78;5.10;;;5.70;99.90;;;;;;6191682;23;20328;-81
2022/02/28 10:27:00;;;;;;;11.90;5.63;;;5.70;99.90;;;;;;6189348;23;20012;-82
2022/02/28 10:29:31;;;;;;;6.50;4.18;;;5.70;99.90;;;;;;6213437;23;20418;-79
2022/02/28 10:31:59;;;;;;;7.63;4.22;;;5.70;99.90;;;;;;6189106;23;20024;-80
2022/02/28 10:34:27;;;;;;;7.40;4.75;;;5.80;99.90;;;;;;6212959;23;20016;-79
2022/02/28 10:37:00;;;;;;;9.63;5.53;;;5.80;99.90;;;;;;6214370;23;20701;-78
2022/02/28 10:39:56;;;;;;;6.38;3.97;;;5.90;99.90;;;;;;6213943;23;20020;-80
2022/02/28 10:42:21;;;;;;;12.48;6.55;;;6.00;99.90;;;;;;6189203;23;20445;-78
2022/02/28 10:44:48;;;;;;;9.18;5.07;;;6.10;99.90;;;;;;6188469;23;20193;-84
2022/02/28 10:47:14;;;;;;;;;;;6.20;99.90;;;;;;6165163;23;20031;-82
2022/02/28 10:49:40;;;;;;;10.48;4.35;;;6.20;99.90;;;;;;6189607;23;19982;-81
2022/02/28 10:52:10;;;;;;;;;;;7.10;99.90;;;;;;6216328;23;20102;-85
2022/02/28 10:54:41;;;;;;;7.95;4.63;;;6.30;99.90;;;;;;6188589;23;19915;-80
2022/02/28 10:57:08;;;;;;;6.68;4.65;;;6.40;99.90;;;;;;6189990;23;20016;-80
2022/02/28 10:59:41;;;;;;;10.07;5.22;;;6.40;99.90;;;;;;6214628;23;20074;-80
2022/02/28 11:02:09;;;;;;;6.93;4.85;;;6.50;99.90;;;;;;6190386;23;20038;-82
2022/02/28 11:04:40;;;;;;;9.52;5.32;;;6.60;99.90;;;;;;6213389;23;20024;-78
2022/02/28 11:07:11;;;;;;;7.43;4.85;;;6.60;99.90;;;;;;6190542;23;20027;-80
2022/02/28 11:09:47;;;;;;;9.25;5.65;;;6.60;99.90;;;;;;6215102;23;20027;-83
2022/02/28 11:12:16;;;;;;;9.15;5.25;;;6.70;99.90;;;;;;6216431;23;20372;-82
2022/02/28 11:14:48;;;;;;;;;;;6.70;99.90;;;;;;6190429;23;20269;-83
2022/02/28 11:17:27;;;;;;;8.55;4.90;;;6.80;99.90;;;;;;6190035;23;20335;-79
2022/02/28 11:19:55;;;;;;;6.82;4.97;;;6.90;99.90;;;;;;6213664;23;20091;-79
2022/02/28 11:22:21;;;;;;;10.43;4.95;;;7.00;99.90;;;;;;6189324;23;20054;-83
2022/02/28 11:24:48;;;;;;;7.82;4.63;;;7.80;99.90;;;;;;6189653;23;20323;-84
2022/02/28 11:27:17;;;;;;;8.40;6.18;;;7.50;99.90;;;;;;6191102;23;20043;-83
2022/02/28 11:29:43;;;;;;;8.18;4.80;;;7.20;99.90;;;;;;6189650;23;20074;-80
2022/02/28 11:32:10;;;;;;;9.20;5.47;;;7.30;99.90;;;;;;6190175;23;20336;-83
2022/02/28 11:34:38;;;;;;;8.38;5.00;;;7.30;99.90;;;;;;6220517;23;20013;-84
2022/02/28 11:37:07;;;;;;;8.15;5.28;;;7.30;99.90;;;;;;6215887;23;20016;-82
2022/02/28 11:39:43;;;;;;;8.57;5.03;;;7.30;99.90;;;;;;6214753;23;20012;-84
2022/02/28 11:42:09;;;;;;;9.98;4.82;;;7.40;99.90;;;;;;6189572;23;20031;-80
2022/02/28 11:44:36;;;;;;;;;;;7.50;99.90;;;;;;6189779;23;20020;-79
2022/02/28 11:47:05;;;;;;;7.50;4.93;;;7.60;99.90;;;;;;6188320;23;19915;-81
2022/02/28 11:49:44;;;;;;;11.55;5.05;;;7.60;99.90;;;;;;6212727;23;20320;-79
2022/02/28 11:52:36;;;;;;;6.88;4.38;;;7.70;99.90;;;;;;6188326;23;20027;-80
2022/02/28 11:55:11;;;;;;;5.25;4.45;;;7.80;99.90;;;;;;6188658;23;20107;-79
2022/02/28 11:57:52;;;;;;;7.55;4.68;;;7.80;99.90;;;;;;6214780;23;20092;-81
2022/02/28 12:00:45;;;;;;;6.50;4.40;;;8.30;99.90;;;;;;6215063;23;20020;-80
2022/02/28 12:03:24;;;;;;;10.15;4.85;;;7.90;99.90;;;;;;6188372;23;20385;-82
2022/02/28 12:05:51;;;;;;;11.43;6.07;;;8.00;99.90;;;;;;6214063;23;20437;-81
2022/02/28 12:08:32;;;;;;;8.95;4.90;;;8.00;99.90;;;;;;6241600;23;20428;-81
2022/02/28 12:11:14;;;;;;;9.95;5.35;;;8.10;99.90;;;;;;6190910;23;20044;-80
2022/02/28 12:13:40;;;;;;;7.32;4.53;;;8.10;99.90;;;;;;6193374;23;20020;-81
2022/02/28 12:19:30;;;;;;;7.20;4.53;;;8.30;99.40;;;;;;6188204;23;20680;-85
2022/02/28 12:22:01;;;;;;;7.05;5.00;;;8.40;99.90;;;;;;6190560;23;20016;-83
2022/02/28 12:25:04;;;;;;;6.60;4.97;;;8.70;99.90;;;;;;6216058;23;20063;-81
2022/02/28 12:27:42;;;;;;;10.00;5.28;;;8.50;99.20;;;;;;6190946;23;20107;-81
2022/02/28 12:30:45;;;;;;;9.25;5.10;;;8.50;99.00;;;;;;6191108;23;20050;-81
2022/02/28 12:33:16;;;;;;;9.00;5.07;;;8.60;99.90;;;;;;6191121;23;20027;-83
2022/02/28 12:35:58;;;;;;;7.88;4.93;;;8.70;99.90;;;;;;6217281;23;20461;-84
2022/02/28 12:38:31;;;;;;;8.02;4.97;;;8.70;97.70;;;;;;6218536;23;20118;-82
2022/02/28 12:41:06;;;;;;;8.63;5.60;;;8.70;99.50;;;;;;6191356;23;20020;-83
2022/02/28 12:43:34;;;;;;;8.35;4.90;;;8.70;98.00;;;;;;6216051;23;20027;-83
2022/02/28 12:46:06;;;;;;;10.10;5.20;;;8.70;99.60;;;;;;6189341;23;20024;-78
2022/02/28 12:48:32;;;;;;;8.45;6.10;;;8.70;96.90;;;;;;6194491;23;20036;-81
2022/02/28 12:51:03;;;;;;;8.15;5.68;;;8.80;97.90;;;;;;6160220;23;20024;-81
2022/02/28 12:53:31;;;;;;;7.80;4.53;;;9.40;96.90;;;;;;6184939;23;20017;-79
2022/02/28 12:56:15;;;;;;;8.38;5.10;;;8.90;95.50;;;;;;6184442;23;20017;-78
2022/02/28 12:58:46;;;;;;;10.85;6.63;;;8.90;96.30;;;;;;6159239;23;20017;-81
2022/02/28 13:01:18;;;;;;;11.48;5.32;;;9.00;97.30;;;;;;6186796;23;20017;-82
2022/02/28 13:03:57;;;;;;;10.43;6.25;;;9.00;98.60;;;;;;6161478;23;20019;-82